sensor_id;sensor_type;location;lat;lon;timestamp;temperature;humidity
28010;DHT22;15334;49.494;8.410;2023-04-25T00:01:02;10.00;99.90
28010;DHT22;15334;49.494;8.410;2023-04-25T00:03:31;9.90;99.90
28010;DHT22;15334;49.494;8.410;2023-04-25T00:05:59;9.90;99.90
28010;DHT22;15334;49.494;8.410;2023-04-25T00:08:29;9.80;99.90
28010;DHT22;15334;49.494;8.410;2023-04-25T00:10:57;9.80;99.90
28010;DHT22;15334;49.494;8.410;2023-04-25T00:13:27;9.70;99.90
28010;DHT22;15334;49.494;8.410;2023-04-25T00:15:55;9.70;99.90
28010;DHT22;15334;49.494;8.410;2023-04-25T00:18:24;9.70;99.90
28010;DHT22;15334;49.494;8.410;2023-04-25T00:20:55;9.60;99.90
28010;DHT22;15334;49.494;8.410;2023-04-25T00:23:23;9.60;99.90
28010;DHT22;15334;49.494;8.410;2023-04-25T00:25:51;9.50;99.90
28010;DHT22;15334;49.494;8.410;2023-04-25T00:28:19;9.50;99.90
28010;DHT22;15334;49.494;8.410;2023-04-25T00:30:49;9.60;99.90
28010;DHT22;15334;49.494;8.410;2023-04-25T00:33:16;9.60;99.90
28010;DHT22;15334;49.494;8.410;2023-04-25T00:35:44;9.50;99.90
28010;DHT22;15334;49.494;8.410;2023-04-25T00:38:12;9.50;99.90
28010;DHT22;15334;49.494;8.410;2023-04-25T00:40:40;9.50;99.90
28010;DHT22;15334;49.494;8.410;2023-04-25T00:43:10;9.50;99.90
28010;DHT22;15334;49.494;8.410;2023-04-25T00:45:39;9.60;99.90
28010;DHT22;15334;49.494;8.410;2023-04-25T00:48:08;9.60;99.90
28010;DHT22;15334;49.494;8.410;2023-04-25T00:50:36;9.60;99.90
28010;DHT22;15334;49.494;8.410;2023-04-25T00:53:04;9.60;99.90
28010;DHT22;15334;49.494;8.410;2023-04-25T00:55:32;9.60;99.90
28010;DHT22;15334;49.494;8.410;2023-04-25T00:58:02;9.60;99.90
28010;DHT22;15334;49.494;8.410;2023-04-25T01:00:30;9.50;99.90
28010;DHT22;15334;49.494;8.410;2023-04-25T01:02:58;9.50;99.90
28010;DHT22;15334;49.494;8.410;2023-04-25T01:05:31;9.60;99.90
28010;DHT22;15334;49.494;8.410;2023-04-25T01:07:59;9.50;99.90
28010;DHT22;15334;49.494;8.410;2023-04-25T01:10:37;9.60;99.90
28010;DHT22;15334;49.494;8.410;2023-04-25T01:13:18;9.50;99.90
28010;DHT22;15334;49.494;8.410;2023-04-25T01:16:09;9.50;99.90
28010;DHT22;15334;49.494;8.410;2023-04-25T01:18:40;9.40;99.90
28010;DHT22;15334;49.494;8.410;2023-04-25T01:21:16;9.40;99.90
28010;DHT22;15334;49.494;8.410;2023-04-25T01:23:54;9.30;99.90
28010;DHT22;15334;49.494;8.410;2023-04-25T01:26:30;9.30;99.90
28010;DHT22;15334;49.494;8.410;2023-04-25T01:28:59;9.40;99.90
28010;DHT22;15334;49.494;8.410;2023-04-25T01:31:28;9.40;99.90
28010;DHT22;15334;49.494;8.410;2023-04-25T01:33:56;9.40;99.90
28010;DHT22;15334;49.494;8.410;2023-04-25T01:36:26;9.40;99.90
28010;DHT22;15334;49.494;8.410;2023-04-25T01:39:01;9.50;99.90
28010;DHT22;15334;49.494;8.410;2023-04-25T01:41:29;9.50;99.90
28010;DHT22;15334;49.494;8.410;2023-04-25T01:44:02;9.40;99.90
28010;DHT22;15334;49.494;8.410;2023-04-25T01:46:38;9.40;99.90
28010;DHT22;15334;49.494;8.410;2023-04-25T01:49:09;9.40;99.90
28010;DHT22;15334;49.494;8.410;2023-04-25T01:51:38;9.40;99.90
28010;DHT22;15334;49.494;8.410;2023-04-25T01:54:12;9.30;99.90
28010;DHT22;15334;49.494;8.410;2023-04-25T01:56:50;9.20;99.90
28010;DHT22;15334;49.494;8.410;2023-04-25T01:59:39;9.20;99.90
28010;DHT22;15334;49.494;8.410;2023-04-25T02:02:15;9.20;99.90
28010;DHT22;15334;49.494;8.410;2023-04-25T02:04:45;9.20;99.90
28010;DHT22;15334;49.494;8.410;2023-04-25T02:07:15;9.20;99.90
28010;DHT22;15334;49.494;8.410;2023-04-25T02:09:44;9.20;99.90
28010;DHT22;15334;49.494;8.410;2023-04-25T02:12:13;9.20;99.90
28010;DHT22;15334;49.494;8.410;2023-04-25T02:14:43;9.20;99.90
28010;DHT22;15334;49.494;8.410;2023-04-25T02:17:20;9.20;99.90
28010;DHT22;15334;49.494;8.410;2023-04-25T02:20:02;9.20;99.90
28010;DHT22;15334;49.494;8.410;2023-04-25T02:22:41;9.20;99.90
28010;DHT22;15334;49.494;8.410;2023-04-25T02:25:19;9.20;99.90
28010;DHT22;15334;49.494;8.410;2023-04-25T02:27:56;9.20;99.90
28010;DHT22;15334;49.494;8.410;2023-04-25T02:30:51;9.20;99.90
28010;DHT22;15334;49.494;8.410;2023-04-25T02:33:32;9.20;99.90
28010;DHT22;15334;49.494;8.410;2023-04-25T02:36:23;9.20;99.90
28010;DHT22;15334;49.494;8.410;2023-04-25T02:39:02;9.20;99.90
28010;DHT22;15334;49.494;8.410;2023-04-25T02:42:01;9.20;99.90
28010;DHT22;15334;49.494;8.410;2023-04-25T02:44:39;9.20;99.90
28010;DHT22;15334;49.494;8.410;2023-04-25T02:47:21;9.20;99.90
28010;DHT22;15334;49.494;8.410;2023-04-25T02:50:07;9.20;99.90
28010;DHT22;15334;49.494;8.410;2023-04-25T02:52:44;9.20;99.90
28010;DHT22;15334;49.494;8.410;2023-04-25T02:55:28;9.20;99.90
28010;DHT22;15334;49.494;8.410;2023-04-25T02:58:02;9.20;99.90
28010;DHT22;15334;49.494;8.410;2023-04-25T03:00:34;9.20;99.90
28010;DHT22;15334;49.494;8.410;2023-04-25T03:03:06;9.20;99.90
28010;DHT22;15334;49.494;8.410;2023-04-25T03:05:42;9.20;99.90
28010;DHT22;15334;49.494;8.410;2023-04-25T03:08:15;9.20;99.90
28010;DHT22;15334;49.494;8.410;2023-04-25T03:10:51;9.20;99.90
28010;DHT22;15334;49.494;8.410;2023-04-25T03:13:27;9.20;99.90
28010;DHT22;15334;49.494;8.410;2023-04-25T03:16:03;9.20;99.90
28010;DHT22;15334;49.494;8.410;2023-04-25T03:18:43;9.20;99.90
28010;DHT22;15334;49.494;8.410;2023-04-25T03:21:15;9.10;99.90
28010;DHT22;15334;49.494;8.410;2023-04-25T03:23:49;9.20;99.90
28010;DHT22;15334;49.494;8.410;2023-04-25T03:26:25;9.20;99.90
28010;DHT22;15334;49.494;8.410;2023-04-25T03:29:00;9.20;99.90
28010;DHT22;15334;49.494;8.410;2023-04-25T03:31:32;9.20;99.90
28010;DHT22;15334;49.494;8.410;2023-04-25T03:34:06;9.20;99.90
28010;DHT22;15334;49.494;8.410;2023-04-25T03:36:48;9.20;99.90
28010;DHT22;15334;49.494;8.410;2023-04-25T03:39:22;9.20;99.90
28010;DHT22;15334;49.494;8.410;2023-04-25T03:42:04;9.10;99.90
28010;DHT22;15334;49.494;8.410;2023-04-25T03:44:42;9.10;99.90
28010;DHT22;15334;49.494;8.410;2023-04-25T03:47:25;9.10;99.90
28010;DHT22;15334;49.494;8.410;2023-04-25T03:50:06;9.10;99.90
28010;DHT22;15334;49.494;8.410;2023-04-25T03:52:44;9.10;99.90
28010;DHT22;15334;49.494;8.410;2023-04-25T03:55:36;9.10;99.90
28010;DHT22;15334;49.494;8.410;2023-04-25T03:58:26;9.10;99.90
28010;DHT22;15334;49.494;8.410;2023-04-25T04:01:33;9.10;99.90
28010;DHT22;15334;49.494;8.410;2023-04-25T04:04:14;9.10;99.90
28010;DHT22;15334;49.494;8.410;2023-04-25T04:06:55;9.10;99.90
28010;DHT22;15334;49.494;8.410;2023-04-25T04:09:31;9.10;99.90
28010;DHT22;15334;49.494;8.410;2023-04-25T04:12:18;9.10;99.90
28010;DHT22;15334;49.494;8.410;2023-04-25T04:14:52;9.10;99.90
28010;DHT22;15334;49.494;8.410;2023-04-25T04:17:33;9.10;99.90
28010;DHT22;15334;49.494;8.410;2023-04-25T04:20:24;9.10;99.90
28010;DHT22;15334;49.494;8.410;2023-04-25T04:23:03;9.10;99.90
28010;DHT22;15334;49.494;8.410;2023-04-25T04:25:56;9.00;99.90
28010;DHT22;15334;49.494;8.410;2023-04-25T04:28:50;9.00;99.90
28010;DHT22;15334;49.494;8.410;2023-04-25T04:31:44;9.00;99.90
28010;DHT22;15334;49.494;8.410;2023-04-25T04:34:38;9.00;99.90
28010;DHT22;15334;49.494;8.410;2023-04-25T04:37:29;9.00;99.90
28010;DHT22;15334;49.494;8.410;2023-04-25T04:40:03;9.10;99.90
28010;DHT22;15334;49.494;8.410;2023-04-25T04:42:41;9.10;99.90
28010;DHT22;15334;49.494;8.410;2023-04-25T04:45:33;9.10;99.90
28010;DHT22;15334;49.494;8.410;2023-04-25T04:48:25;9.10;99.90
28010;DHT22;15334;49.494;8.410;2023-04-25T04:50:58;9.10;99.90
28010;DHT22;15334;49.494;8.410;2023-04-25T04:53:36;9.20;99.90
28010;DHT22;15334;49.494;8.410;2023-04-25T04:56:29;9.20;99.90
28010;DHT22;15334;49.494;8.410;2023-04-25T04:59:24;9.20;99.90
28010;DHT22;15334;49.494;8.410;2023-04-25T05:01:55;9.20;99.90
28010;DHT22;15334;49.494;8.410;2023-04-25T05:04:29;9.20;99.90
28010;DHT22;15334;49.494;8.410;2023-04-25T05:07:03;9.30;99.90
28010;DHT22;15334;49.494;8.410;2023-04-25T05:09:31;9.30;99.90
28010;DHT22;15334;49.494;8.410;2023-04-25T05:11:59;9.40;99.90
28010;DHT22;15334;49.494;8.410;2023-04-25T05:14:28;9.40;99.90
28010;DHT22;15334;49.494;8.410;2023-04-25T05:16:56;9.50;99.90
28010;DHT22;15334;49.494;8.410;2023-04-25T05:19:25;9.50;99.90
28010;DHT22;15334;49.494;8.410;2023-04-25T05:21:54;9.50;99.90
28010;DHT22;15334;49.494;8.410;2023-04-25T05:24:22;9.40;99.90
28010;DHT22;15334;49.494;8.410;2023-04-25T05:26:50;9.40;99.90
28010;DHT22;15334;49.494;8.410;2023-04-25T05:29:18;9.30;99.90
28010;DHT22;15334;49.494;8.410;2023-04-25T05:31:46;9.30;99.90
28010;DHT22;15334;49.494;8.410;2023-04-25T05:34:15;9.40;99.90
28010;DHT22;15334;49.494;8.410;2023-04-25T05:36:43;9.40;99.90
28010;DHT22;15334;49.494;8.410;2023-04-25T05:39:16;9.40;99.90
28010;DHT22;15334;49.494;8.410;2023-04-25T05:41:44;9.40;99.90
28010;DHT22;15334;49.494;8.410;2023-04-25T05:44:12;9.30;99.90
28010;DHT22;15334;49.494;8.410;2023-04-25T05:46:42;9.30;99.90
28010;DHT22;15334;49.494;8.410;2023-04-25T05:49:10;9.40;99.90
28010;DHT22;15334;49.494;8.410;2023-04-25T05:51:38;9.40;99.90
28010;DHT22;15334;49.494;8.410;2023-04-25T05:54:06;9.50;99.90
28010;DHT22;15334;49.494;8.410;2023-04-25T05:56:36;9.60;99.90
28010;DHT22;15334;49.494;8.410;2023-04-25T05:59:04;9.60;99.90
28010;DHT22;15334;49.494;8.410;2023-04-25T06:01:32;9.60;99.90
28010;DHT22;15334;49.494;8.410;2023-04-25T06:04:00;9.60;99.90
28010;DHT22;15334;49.494;8.410;2023-04-25T06:06:29;9.70;99.90
28010;DHT22;15334;49.494;8.410;2023-04-25T06:08:57;9.70;99.90
28010;DHT22;15334;49.494;8.410;2023-04-25T06:11:25;9.70;99.90
28010;DHT22;15334;49.494;8.410;2023-04-25T06:13:55;9.70;99.90
28010;DHT22;15334;49.494;8.410;2023-04-25T06:16:23;9.60;99.90
28010;DHT22;15334;49.494;8.410;2023-04-25T06:18:52;9.50;99.90
28010;DHT22;15334;49.494;8.410;2023-04-25T06:21:20;9.40;99.90
28010;DHT22;15334;49.494;8.410;2023-04-25T06:23:48;9.50;99.90
28010;DHT22;15334;49.494;8.410;2023-04-25T06:26:17;9.50;99.90
28010;DHT22;15334;49.494;8.410;2023-04-25T06:28:46;9.50;99.90
28010;DHT22;15334;49.494;8.410;2023-04-25T06:31:15;9.50;99.90
28010;DHT22;15334;49.494;8.410;2023-04-25T06:33:43;9.40;99.90
28010;DHT22;15334;49.494;8.410;2023-04-25T06:36:11;9.50;99.90
28010;DHT22;15334;49.494;8.410;2023-04-25T06:38:39;9.50;99.90
28010;DHT22;15334;49.494;8.410;2023-04-25T06:41:07;9.50;99.90
28010;DHT22;15334;49.494;8.410;2023-04-25T06:43:35;9.50;99.90
28010;DHT22;15334;49.494;8.410;2023-04-25T06:46:03;9.50;99.90
28010;DHT22;15334;49.494;8.410;2023-04-25T06:48:32;9.50;99.90
28010;DHT22;15334;49.494;8.410;2023-04-25T06:51:00;9.50;99.90
28010;DHT22;15334;49.494;8.410;2023-04-25T06:53:28;9.40;99.90
28010;DHT22;15334;49.494;8.410;2023-04-25T06:55:56;9.40;99.90
28010;DHT22;15334;49.494;8.410;2023-04-25T06:58:24;9.40;99.90
28010;DHT22;15334;49.494;8.410;2023-04-25T07:00:53;9.20;99.90
28010;DHT22;15334;49.494;8.410;2023-04-25T07:03:21;9.10;99.90
28010;DHT22;15334;49.494;8.410;2023-04-25T07:05:51;9.10;99.90
28010;DHT22;15334;49.494;8.410;2023-04-25T07:08:19;9.00;99.90
28010;DHT22;15334;49.494;8.410;2023-04-25T07:10:48;9.00;99.90
28010;DHT22;15334;49.494;8.410;2023-04-25T07:13:16;8.90;99.90
28010;DHT22;15334;49.494;8.410;2023-04-25T07:15:44;8.90;99.90
28010;DHT22;15334;49.494;8.410;2023-04-25T07:18:14;8.80;99.90
28010;DHT22;15334;49.494;8.410;2023-04-25T07:20:42;8.80;99.90
28010;DHT22;15334;49.494;8.410;2023-04-25T07:23:12;8.70;99.90
28010;DHT22;15334;49.494;8.410;2023-04-25T07:25:39;8.60;99.90
28010;DHT22;15334;49.494;8.410;2023-04-25T07:28:07;8.60;99.90
28010;DHT22;15334;49.494;8.410;2023-04-25T07:30:35;8.60;99.90
28010;DHT22;15334;49.494;8.410;2023-04-25T07:33:03;8.50;99.90
28010;DHT22;15334;49.494;8.410;2023-04-25T07:35:31;8.50;99.90
28010;DHT22;15334;49.494;8.410;2023-04-25T07:37:59;8.40;99.90
28010;DHT22;15334;49.494;8.410;2023-04-25T07:40:29;8.50;99.90
28010;DHT22;15334;49.494;8.410;2023-04-25T07:42:57;8.50;99.90
28010;DHT22;15334;49.494;8.410;2023-04-25T07:45:25;8.60;99.90
28010;DHT22;15334;49.494;8.410;2023-04-25T07:47:53;8.80;99.90
28010;DHT22;15334;49.494;8.410;2023-04-25T07:50:22;8.90;99.90
28010;DHT22;15334;49.494;8.410;2023-04-25T07:52:50;9.00;99.90
28010;DHT22;15334;49.494;8.410;2023-04-25T07:55:19;9.10;99.90
28010;DHT22;15334;49.494;8.410;2023-04-25T07:57:48;9.10;99.90
28010;DHT22;15334;49.494;8.410;2023-04-25T08:00:17;9.30;99.90
28010;DHT22;15334;49.494;8.410;2023-04-25T08:02:45;9.30;99.90
28010;DHT22;15334;49.494;8.410;2023-04-25T08:05:13;9.30;99.90
28010;DHT22;15334;49.494;8.410;2023-04-25T08:07:46;9.30;99.90
28010;DHT22;15334;49.494;8.410;2023-04-25T08:10:15;9.40;99.90
28010;DHT22;15334;49.494;8.410;2023-04-25T08:12:42;9.30;99.90
28010;DHT22;15334;49.494;8.410;2023-04-25T08:15:12;9.40;99.90
28010;DHT22;15334;49.494;8.410;2023-04-25T08:17:41;9.40;99.90
28010;DHT22;15334;49.494;8.410;2023-04-25T08:20:11;9.60;99.90
28010;DHT22;15334;49.494;8.410;2023-04-25T08:22:39;9.60;99.90
28010;DHT22;15334;49.494;8.410;2023-04-25T08:25:07;9.70;99.90
28010;DHT22;15334;49.494;8.410;2023-04-25T08:27:35;9.70;99.90
28010;DHT22;15334;49.494;8.410;2023-04-25T08:30:04;9.80;99.90
28010;DHT22;15334;49.494;8.410;2023-04-25T08:32:34;9.90;99.90
28010;DHT22;15334;49.494;8.410;2023-04-25T08:35:05;10.00;99.90
28010;DHT22;15334;49.494;8.410;2023-04-25T08:37:33;10.10;99.90
28010;DHT22;15334;49.494;8.410;2023-04-25T08:40:01;10.30;99.90
28010;DHT22;15334;49.494;8.410;2023-04-25T08:42:33;10.50;99.90
28010;DHT22;15334;49.494;8.410;2023-04-25T08:45:02;10.60;99.90
28010;DHT22;15334;49.494;8.410;2023-04-25T08:47:34;10.80;99.90
28010;DHT22;15334;49.494;8.410;2023-04-25T08:50:03;11.00;99.90
28010;DHT22;15334;49.494;8.410;2023-04-25T08:52:36;11.00;99.90
28010;DHT22;15334;49.494;8.410;2023-04-25T08:55:07;10.90;99.90
28010;DHT22;15334;49.494;8.410;2023-04-25T08:57:37;10.80;99.90
28010;DHT22;15334;49.494;8.410;2023-04-25T09:00:07;10.70;99.90
28010;DHT22;15334;49.494;8.410;2023-04-25T09:02:37;10.70;99.90
28010;DHT22;15334;49.494;8.410;2023-04-25T09:05:06;10.70;99.90
28010;DHT22;15334;49.494;8.410;2023-04-25T09:07:36;10.70;99.90
28010;DHT22;15334;49.494;8.410;2023-04-25T09:10:04;10.90;99.90
28010;DHT22;15334;49.494;8.410;2023-04-25T09:12:32;11.00;99.90
28010;DHT22;15334;49.494;8.410;2023-04-25T09:15:05;11.00;99.90
28010;DHT22;15334;49.494;8.410;2023-04-25T09:17:34;11.00;99.90
28010;DHT22;15334;49.494;8.410;2023-04-25T09:20:10;11.00;99.90
28010;DHT22;15334;49.494;8.410;2023-04-25T09:22:38;11.20;99.90
28010;DHT22;15334;49.494;8.410;2023-04-25T09:25:10;11.10;99.90
28010;DHT22;15334;49.494;8.410;2023-04-25T09:27:49;10.90;99.90
28010;DHT22;15334;49.494;8.410;2023-04-25T09:30:17;11.10;99.90
28010;DHT22;15334;49.494;8.410;2023-04-25T09:32:45;11.20;99.90
28010;DHT22;15334;49.494;8.410;2023-04-25T09:35:25;11.30;99.90
28010;DHT22;15334;49.494;8.410;2023-04-25T09:37:55;11.40;99.90
28010;DHT22;15334;49.494;8.410;2023-04-25T09:40:23;11.50;99.90
28010;DHT22;15334;49.494;8.410;2023-04-25T09:42:51;11.50;99.90
28010;DHT22;15334;49.494;8.410;2023-04-25T09:45:20;11.60;99.90
28010;DHT22;15334;49.494;8.410;2023-04-25T09:47:47;11.50;99.90
28010;DHT22;15334;49.494;8.410;2023-04-25T09:50:18;11.40;99.90
28010;DHT22;15334;49.494;8.410;2023-04-25T09:53:02;11.30;99.90
28010;DHT22;15334;49.494;8.410;2023-04-25T09:55:31;11.50;99.90
28010;DHT22;15334;49.494;8.410;2023-04-25T09:58:04;11.70;99.90
28010;DHT22;15334;49.494;8.410;2023-04-25T10:00:33;11.70;99.90
28010;DHT22;15334;49.494;8.410;2023-04-25T10:03:02;11.60;99.90
28010;DHT22;15334;49.494;8.410;2023-04-25T10:05:32;11.80;99.90
28010;DHT22;15334;49.494;8.410;2023-04-25T10:08:14;11.90;99.90
28010;DHT22;15334;49.494;8.410;2023-04-25T10:11:18;12.10;99.90
28010;DHT22;15334;49.494;8.410;2023-04-25T10:13:53;12.50;99.90
28010;DHT22;15334;49.494;8.410;2023-04-25T10:16:22;12.80;99.90
28010;DHT22;15334;49.494;8.410;2023-04-25T10:19:15;12.80;99.90
28010;DHT22;15334;49.494;8.410;2023-04-25T10:22:03;12.90;99.90
28010;DHT22;15334;49.494;8.410;2023-04-25T10:24:34;12.80;99.90
28010;DHT22;15334;49.494;8.410;2023-04-25T10:27:03;12.60;99.90
28010;DHT22;15334;49.494;8.410;2023-04-25T10:29:32;12.20;99.90
28010;DHT22;15334;49.494;8.410;2023-04-25T10:32:00;12.00;99.90
28010;DHT22;15334;49.494;8.410;2023-04-25T10:34:42;11.90;99.90
28010;DHT22;15334;49.494;8.410;2023-04-25T10:37:13;11.80;99.90
28010;DHT22;15334;49.494;8.410;2023-04-25T10:39:43;12.00;99.90
28010;DHT22;15334;49.494;8.410;2023-04-25T10:42:11;12.20;99.90
28010;DHT22;15334;49.494;8.410;2023-04-25T10:44:39;12.50;99.90
28010;DHT22;15334;49.494;8.410;2023-04-25T10:47:08;12.70;99.90
28010;DHT22;15334;49.494;8.410;2023-04-25T10:49:41;12.90;99.90
28010;DHT22;15334;49.494;8.410;2023-04-25T10:52:15;12.90;99.90
28010;DHT22;15334;49.494;8.410;2023-04-25T10:54:48;12.90;99.90
28010;DHT22;15334;49.494;8.410;2023-04-25T10:57:30;12.60;99.90
28010;DHT22;15334;49.494;8.410;2023-04-25T11:00:00;12.20;99.90
28010;DHT22;15334;49.494;8.410;2023-04-25T11:02:32;12.00;99.90
28010;DHT22;15334;49.494;8.410;2023-04-25T11:05:05;11.90;99.90
28010;DHT22;15334;49.494;8.410;2023-04-25T11:07:46;12.00;99.90
28010;DHT22;15334;49.494;8.410;2023-04-25T11:10:36;12.00;99.90
28010;DHT22;15334;49.494;8.410;2023-04-25T11:13:37;11.90;99.90
28010;DHT22;15334;49.494;8.410;2023-04-25T11:16:26;12.00;99.90
28010;DHT22;15334;49.494;8.410;2023-04-25T11:19:16;12.00;99.90
28010;DHT22;15334;49.494;8.410;2023-04-25T11:22:29;12.00;99.90
28010;DHT22;15334;49.494;8.410;2023-04-25T11:25:05;12.00;99.90
28010;DHT22;15334;49.494;8.410;2023-04-25T11:27:56;12.10;99.90
28010;DHT22;15334;49.494;8.410;2023-04-25T11:31:12;12.50;99.90
28010;DHT22;15334;49.494;8.410;2023-04-25T11:37:50;12.90;99.90
28010;DHT22;15334;49.494;8.410;2023-04-25T11:44:01;12.60;99.90
28010;DHT22;15334;49.494;8.410;2023-04-25T11:47:06;12.50;99.90
28010;DHT22;15334;49.494;8.410;2023-04-25T11:50:00;12.70;99.90
28010;DHT22;15334;49.494;8.410;2023-04-25T11:52:55;12.90;99.90
28010;DHT22;15334;49.494;8.410;2023-04-25T11:59:27;13.00;99.90
28010;DHT22;15334;49.494;8.410;2023-04-25T12:03:04;13.00;99.90
28010;DHT22;15334;49.494;8.410;2023-04-25T12:05:33;12.90;99.90
28010;DHT22;15334;49.494;8.410;2023-04-25T12:08:17;13.20;99.90
28010;DHT22;15334;49.494;8.410;2023-04-25T12:10:49;13.20;99.90
28010;DHT22;15334;49.494;8.410;2023-04-25T12:13:19;13.10;99.90
28010;DHT22;15334;49.494;8.410;2023-04-25T12:15:51;12.60;99.90
28010;DHT22;15334;49.494;8.410;2023-04-25T12:18:19;12.60;99.90
28010;DHT22;15334;49.494;8.410;2023-04-25T12:20:48;12.70;99.90
28010;DHT22;15334;49.494;8.410;2023-04-25T12:23:16;12.80;99.90
28010;DHT22;15334;49.494;8.410;2023-04-25T12:25:44;12.80;99.90
28010;DHT22;15334;49.494;8.410;2023-04-25T12:28:16;12.90;99.90
28010;DHT22;15334;49.494;8.410;2023-04-25T12:30:57;13.00;99.90
28010;DHT22;15334;49.494;8.410;2023-04-25T12:33:27;12.90;99.90
28010;DHT22;15334;49.494;8.410;2023-04-25T12:35:56;12.80;99.90
28010;DHT22;15334;49.494;8.410;2023-04-25T12:38:27;13.00;99.90
28010;DHT22;15334;49.494;8.410;2023-04-25T12:40:56;13.00;99.90
28010;DHT22;15334;49.494;8.410;2023-04-25T12:43:24;12.90;99.90
28010;DHT22;15334;49.494;8.410;2023-04-25T12:45:55;12.80;99.90
28010;DHT22;15334;49.494;8.410;2023-04-25T12:48:23;12.90;99.90
28010;DHT22;15334;49.494;8.410;2023-04-25T12:50:52;13.30;99.90
28010;DHT22;15334;49.494;8.410;2023-04-25T12:53:20;13.90;99.90
28010;DHT22;15334;49.494;8.410;2023-04-25T12:55:49;14.10;99.90
28010;DHT22;15334;49.494;8.410;2023-04-25T12:58:22;14.20;99.90
28010;DHT22;15334;49.494;8.410;2023-04-25T13:00:50;14.00;99.90
28010;DHT22;15334;49.494;8.410;2023-04-25T13:03:24;13.80;99.90
28010;DHT22;15334;49.494;8.410;2023-04-25T13:05:52;13.60;99.90
28010;DHT22;15334;49.494;8.410;2023-04-25T13:08:21;13.40;99.90
28010;DHT22;15334;49.494;8.410;2023-04-25T13:10:49;13.50;99.90
28010;DHT22;15334;49.494;8.410;2023-04-25T13:13:17;13.30;99.90
28010;DHT22;15334;49.494;8.410;2023-04-25T13:15:45;13.10;99.90
28010;DHT22;15334;49.494;8.410;2023-04-25T13:18:14;13.20;99.90
28010;DHT22;15334;49.494;8.410;2023-04-25T13:20:46;13.00;99.90
28010;DHT22;15334;49.494;8.410;2023-04-25T13:23:14;13.10;99.90
28010;DHT22;15334;49.494;8.410;2023-04-25T13:25:42;13.20;99.90
28010;DHT22;15334;49.494;8.410;2023-04-25T13:28:10;13.10;99.90
28010;DHT22;15334;49.494;8.410;2023-04-25T13:30:38;13.10;99.90
28010;DHT22;15334;49.494;8.410;2023-04-25T13:33:06;13.00;99.90
28010;DHT22;15334;49.494;8.410;2023-04-25T13:35:36;12.90;99.90
28010;DHT22;15334;49.494;8.410;2023-04-25T13:38:05;12.80;99.90
28010;DHT22;15334;49.494;8.410;2023-04-25T13:40:33;12.80;99.90
28010;DHT22;15334;49.494;8.410;2023-04-25T13:43:02;12.90;99.90
28010;DHT22;15334;49.494;8.410;2023-04-25T13:45:30;13.10;99.90
28010;DHT22;15334;49.494;8.410;2023-04-25T13:47:59;13.10;99.90
28010;DHT22;15334;49.494;8.410;2023-04-25T13:50:27;13.10;99.90
28010;DHT22;15334;49.494;8.410;2023-04-25T13:52:55;13.00;99.90
28010;DHT22;15334;49.494;8.410;2023-04-25T13:55:43;12.90;99.90
28010;DHT22;15334;49.494;8.410;2023-04-25T13:58:26;12.90;99.90
28010;DHT22;15334;49.494;8.410;2023-04-25T14:01:13;13.00;99.90
28010;DHT22;15334;49.494;8.410;2023-04-25T14:03:59;13.00;99.90
28010;DHT22;15334;49.494;8.410;2023-04-25T14:06:34;13.10;99.90
28010;DHT22;15334;49.494;8.410;2023-04-25T14:09:26;13.10;99.90
28010;DHT22;15334;49.494;8.410;2023-04-25T14:12:15;13.10;99.90
28010;DHT22;15334;49.494;8.410;2023-04-25T14:15:09;12.80;99.90
28010;DHT22;15334;49.494;8.410;2023-04-25T14:17:44;12.60;99.90
28010;DHT22;15334;49.494;8.410;2023-04-25T14:20:51;12.50;99.90
28010;DHT22;15334;49.494;8.410;2023-04-25T14:23:42;12.40;99.90
28010;DHT22;15334;49.494;8.410;2023-04-25T14:26:25;12.30;99.90
28010;DHT22;15334;49.494;8.410;2023-04-25T14:29:05;12.20;99.90
28010;DHT22;15334;49.494;8.410;2023-04-25T14:31:35;12.20;99.90
28010;DHT22;15334;49.494;8.410;2023-04-25T14:34:37;12.30;99.90
28010;DHT22;15334;49.494;8.410;2023-04-25T14:37:09;12.30;99.90
28010;DHT22;15334;49.494;8.410;2023-04-25T14:39:54;12.10;99.90
28010;DHT22;15334;49.494;8.410;2023-04-25T14:43:07;12.10;99.90
28010;DHT22;15334;49.494;8.410;2023-04-25T14:45:48;12.10;99.90
28010;DHT22;15334;49.494;8.410;2023-04-25T14:48:30;12.30;99.90
28010;DHT22;15334;49.494;8.410;2023-04-25T14:51:55;12.20;99.90
28010;DHT22;15334;49.494;8.410;2023-04-25T14:54:49;12.40;99.90
28010;DHT22;15334;49.494;8.410;2023-04-25T14:57:20;12.50;99.90
28010;DHT22;15334;49.494;8.410;2023-04-25T15:00:13;12.70;99.90
28010;DHT22;15334;49.494;8.410;2023-04-25T15:03:19;12.90;99.90
28010;DHT22;15334;49.494;8.410;2023-04-25T15:10:17;12.80;99.90
28010;DHT22;15334;49.494;8.410;2023-04-25T15:13:26;13.10;99.90
28010;DHT22;15334;49.494;8.410;2023-04-25T15:16:15;13.30;99.90
28010;DHT22;15334;49.494;8.410;2023-04-25T15:18:56;13.50;99.90
28010;DHT22;15334;49.494;8.410;2023-04-25T15:21:59;13.70;99.90
28010;DHT22;15334;49.494;8.410;2023-04-25T15:24:29;13.70;99.90
28010;DHT22;15334;49.494;8.410;2023-04-25T15:27:01;13.70;99.90
28010;DHT22;15334;49.494;8.410;2023-04-25T15:29:47;13.60;99.90
28010;DHT22;15334;49.494;8.410;2023-04-25T15:32:23;13.30;99.90
28010;DHT22;15334;49.494;8.410;2023-04-25T15:35:05;13.10;99.90
28010;DHT22;15334;49.494;8.410;2023-04-25T15:37:34;13.10;99.70
28010;DHT22;15334;49.494;8.410;2023-04-25T15:40:05;13.00;99.90
28010;DHT22;15334;49.494;8.410;2023-04-25T15:42:42;12.90;99.90
28010;DHT22;15334;49.494;8.410;2023-04-25T15:45:14;13.10;99.90
28010;DHT22;15334;49.494;8.410;2023-04-25T15:47:44;12.80;99.90
28010;DHT22;15334;49.494;8.410;2023-04-25T15:50:14;12.70;99.90
28010;DHT22;15334;49.494;8.410;2023-04-25T15:52:42;12.60;99.90
28010;DHT22;15334;49.494;8.410;2023-04-25T15:55:11;12.50;99.90
28010;DHT22;15334;49.494;8.410;2023-04-25T15:57:40;12.50;99.90
28010;DHT22;15334;49.494;8.410;2023-04-25T16:00:09;12.40;99.90
28010;DHT22;15334;49.494;8.410;2023-04-25T16:02:39;12.40;99.90
28010;DHT22;15334;49.494;8.410;2023-04-25T16:05:18;12.40;99.90
28010;DHT22;15334;49.494;8.410;2023-04-25T16:07:46;12.50;99.90
28010;DHT22;15334;49.494;8.410;2023-04-25T16:10:25;12.50;99.90
28010;DHT22;15334;49.494;8.410;2023-04-25T16:12:59;12.50;99.90
28010;DHT22;15334;49.494;8.410;2023-04-25T16:15:36;12.50;99.90
28010;DHT22;15334;49.494;8.410;2023-04-25T16:18:08;12.50;99.90
28010;DHT22;15334;49.494;8.410;2023-04-25T16:20:40;12.40;99.90
28010;DHT22;15334;49.494;8.410;2023-04-25T16:23:09;12.20;99.90
28010;DHT22;15334;49.494;8.410;2023-04-25T16:25:41;12.00;99.90
28010;DHT22;15334;49.494;8.410;2023-04-25T16:28:10;11.90;99.90
28010;DHT22;15334;49.494;8.410;2023-04-25T16:30:49;11.90;99.90
28010;DHT22;15334;49.494;8.410;2023-04-25T16:33:17;11.70;99.90
28010;DHT22;15334;49.494;8.410;2023-04-25T16:35:55;11.70;99.90
28010;DHT22;15334;49.494;8.410;2023-04-25T16:38:32;11.60;99.90
28010;DHT22;15334;49.494;8.410;2023-04-25T16:41:00;11.60;99.90
28010;DHT22;15334;49.494;8.410;2023-04-25T16:43:28;11.60;99.90